createdAt,value
2022-12-14T00:01:53.316Z,35.92
2022-12-14T00:04:22.096Z,36.05
2022-12-14T00:06:51.118Z,36.03
2022-12-14T00:09:19.822Z,36.29
2022-12-14T00:11:48.838Z,36.13
2022-12-14T00:14:17.630Z,36.48
2022-12-14T00:16:46.687Z,36.43
2022-12-14T00:19:15.954Z,36.49
2022-12-14T00:21:46.380Z,36.46
2022-12-14T00:24:15.138Z,36.63
2022-12-14T00:26:44.158Z,36.72
2022-12-14T00:29:13.823Z,36.61
2022-12-14T00:31:42.918Z,36.54
2022-12-14T00:34:11.692Z,36.60
2022-12-14T00:36:40.953Z,36.72
2022-12-14T00:39:09.715Z,36.82
2022-12-14T00:41:38.763Z,36.98
2022-12-14T00:44:07.491Z,36.91
2022-12-14T00:46:36.653Z,36.86
2022-12-14T00:49:05.479Z,36.64
2022-12-14T00:51:34.653Z,36.69
2022-12-14T00:54:03.394Z,36.90
2022-12-14T00:56:32.581Z,36.91
2022-12-14T00:59:01.443Z,36.99
2022-12-14T01:01:30.809Z,37.01
2022-12-14T01:04:17.699Z,36.98
2022-12-14T01:06:47.758Z,37.15
2022-12-14T01:09:17.527Z,37.26
2022-12-14T01:11:46.676Z,37.29
2022-12-14T01:14:16.998Z,37.09
2022-12-14T01:16:46.295Z,37.43
2022-12-14T01:19:15.991Z,37.40
2022-12-14T01:21:45.928Z,37.32
2022-12-14T01:24:14.806Z,37.43
2022-12-14T01:26:44.036Z,37.76
2022-12-14T01:29:13.446Z,37.44
2022-12-14T01:31:43.337Z,37.59
2022-12-14T01:34:12.297Z,37.73
2022-12-14T01:36:41.417Z,37.65
2022-12-14T01:39:16.662Z,37.72
2022-12-14T01:41:54.756Z,37.92
2022-12-14T01:44:23.625Z,37.77
2022-12-14T01:47:15.066Z,37.82
2022-12-14T01:50:01.406Z,38.07
2022-12-14T01:52:36.780Z,37.92
2022-12-14T01:55:15.015Z,37.84
2022-12-14T01:58:02.977Z,37.97
2022-12-14T02:00:31.821Z,38.03
2022-12-14T02:03:05.810Z,37.94
2022-12-14T02:05:35.828Z,37.98
2022-12-14T02:08:05.119Z,38.04
2022-12-14T02:10:33.926Z,37.92
2022-12-14T02:13:27.762Z,37.86
2022-12-14T02:15:56.890Z,38.04
2022-12-14T02:18:28.797Z,37.80
2022-12-14T02:21:16.130Z,37.85
2022-12-14T02:23:58.718Z,38.13
2022-12-14T02:26:52.679Z,38.17
2022-12-14T02:29:44.470Z,38.14
2022-12-14T02:32:42.669Z,38.25
2022-12-14T02:35:36.200Z,38.10
2022-12-14T02:38:35.519Z,38.16
2022-12-14T02:41:41.760Z,38.31
2022-12-14T02:44:21.017Z,38.45
2022-12-14T02:47:00.286Z,38.37
2022-12-14T02:49:50.627Z,38.26
2022-12-14T02:52:29.769Z,38.45
2022-12-14T02:55:25.817Z,38.45
2022-12-14T02:57:59.422Z,38.50
2022-12-14T03:00:29.581Z,38.60
2022-12-14T03:02:58.857Z,38.58
2022-12-14T03:05:28.828Z,38.65
2022-12-14T03:08:12.499Z,38.40
2022-12-14T03:10:47.327Z,38.38
2022-12-14T03:13:25.283Z,38.38
2022-12-14T03:16:01.211Z,38.21
2022-12-14T03:18:36.417Z,38.07
2022-12-14T03:21:06.058Z,37.90
2022-12-14T03:23:36.936Z,37.71
2022-12-14T03:26:26.326Z,37.70
2022-12-14T03:29:29.009Z,37.42
2022-12-14T03:31:59.817Z,37.15
2022-12-14T03:34:32.006Z,37.04
2022-12-14T03:37:14.037Z,36.96
2022-12-14T03:39:43.861Z,36.90
2022-12-14T03:42:34.658Z,36.83
2022-12-14T03:45:31.469Z,36.93
2022-12-14T03:48:24.797Z,36.99
2022-12-14T03:51:00.954Z,37.04
2022-12-14T03:53:47.897Z,37.28
2022-12-14T03:56:41.556Z,37.40
2022-12-14T03:59:13.338Z,37.22
2022-12-14T04:01:49.131Z,37.60
2022-12-14T04:04:22.727Z,37.51
2022-12-14T04:07:05.947Z,37.70
2022-12-14T04:10:00.220Z,37.83
2022-12-14T04:12:55.357Z,37.52
2022-12-14T04:15:53.540Z,37.97
2022-12-14T04:18:57.404Z,38.02
2022-12-14T04:21:56.289Z,38.28
2022-12-14T04:25:04.430Z,38.40
2022-12-14T04:27:57.815Z,38.22
2022-12-14T04:30:28.208Z,38.53
2022-12-14T04:32:59.660Z,38.59
2022-12-14T04:35:40.249Z,38.52
2022-12-14T04:38:17.899Z,38.67
2022-12-14T04:40:50.070Z,38.42
2022-12-14T04:43:21.948Z,38.64
2022-12-14T04:45:59.795Z,38.45
2022-12-14T04:48:45.087Z,38.37
2022-12-14T04:51:23.822Z,38.19
2022-12-14T04:53:56.592Z,38.03
2022-12-14T04:56:25.490Z,38.04
2022-12-14T04:58:54.169Z,37.74
2022-12-14T05:01:49.006Z,37.71
2022-12-14T05:04:55.545Z,37.37
2022-12-14T05:07:58.402Z,37.75
2022-12-14T05:10:41.974Z,37.35
2022-12-14T05:13:25.302Z,37.35
2022-12-14T05:15:55.823Z,37.17
2022-12-14T05:18:24.977Z,37.01
2022-12-14T05:20:53.868Z,37.16
2022-12-14T05:23:22.920Z,37.03
2022-12-14T05:25:51.672Z,36.76
2022-12-14T05:28:20.717Z,36.68
2022-12-14T05:30:49.516Z,36.55
2022-12-14T05:33:20.105Z,36.62
2022-12-14T05:35:48.681Z,36.50
2022-12-14T05:38:17.595Z,36.43
2022-12-14T05:40:46.132Z,36.37
2022-12-14T05:43:15.111Z,36.26
2022-12-14T05:45:43.968Z,36.11
2022-12-14T05:48:13.071Z,36.20
2022-12-14T05:50:41.746Z,36.16
2022-12-14T05:53:10.852Z,36.23
2022-12-14T05:55:39.539Z,36.04
2022-12-14T05:58:08.587Z,36.02
2022-12-14T06:00:37.737Z,35.86
2022-12-14T06:03:07.031Z,35.82
2022-12-14T06:05:35.967Z,35.82
2022-12-14T06:08:05.163Z,36.01
2022-12-14T06:10:33.887Z,35.80
2022-12-14T06:13:02.967Z,35.80
2022-12-14T06:15:34.053Z,35.71
2022-12-14T06:18:03.379Z,35.72
2022-12-14T06:20:32.139Z,35.83
2022-12-14T06:23:01.841Z,35.47
2022-12-14T06:25:30.767Z,35.70
2022-12-14T06:27:59.888Z,35.46
2022-12-14T06:30:28.729Z,35.61
2022-12-14T06:32:57.858Z,35.58
2022-12-14T06:35:26.618Z,35.63
2022-12-14T06:37:55.668Z,35.69
2022-12-14T06:40:24.318Z,35.93
2022-12-14T06:42:53.359Z,35.78
2022-12-14T06:45:23.465Z,36.06
2022-12-14T06:47:53.129Z,35.95
2022-12-14T06:50:21.969Z,36.00
2022-12-14T06:52:51.917Z,36.05
2022-12-14T06:55:20.757Z,36.52
2022-12-14T06:57:51.989Z,36.32
2022-12-14T07:00:22.429Z,36.50
2022-12-14T07:02:51.309Z,36.52
2022-12-14T07:05:20.869Z,36.63
2022-12-14T07:07:49.690Z,36.52
2022-12-14T07:10:18.759Z,36.78
2022-12-14T07:12:47.690Z,36.80
2022-12-14T07:15:17.008Z,36.77
2022-12-14T07:17:45.809Z,36.91
2022-12-14T07:20:14.879Z,37.11
2022-12-14T07:22:44.489Z,37.05
2022-12-14T07:25:19.752Z,37.30
2022-12-14T07:27:48.751Z,37.32
2022-12-14T07:30:19.078Z,37.37
2022-12-14T07:32:47.889Z,37.56
2022-12-14T07:35:18.188Z,37.67
2022-12-14T07:37:49.338Z,37.67
2022-12-14T07:40:18.693Z,37.92
2022-12-14T07:42:51.437Z,37.85
2022-12-14T07:45:21.159Z,38.28
2022-12-14T07:47:50.110Z,38.18
2022-12-14T07:50:19.218Z,38.26
2022-12-14T07:52:48.217Z,38.54
2022-12-14T07:55:17.460Z,38.61
2022-12-14T07:57:46.357Z,38.67
2022-12-14T08:00:17.448Z,39.03
2022-12-14T08:02:46.347Z,38.87
2022-12-14T08:05:17.678Z,38.90
2022-12-14T08:07:46.768Z,39.00
2022-12-14T08:10:15.868Z,39.24
2022-12-14T08:12:44.668Z,39.24
2022-12-14T08:15:13.961Z,39.29
2022-12-14T08:17:42.969Z,39.46
2022-12-14T08:20:12.960Z,39.37
2022-12-14T08:22:41.764Z,39.44
2022-12-14T08:25:11.023Z,39.45
2022-12-14T08:27:39.907Z,39.53
2022-12-14T08:30:10.497Z,39.65
2022-12-14T08:32:39.379Z,39.54
2022-12-14T08:35:09.497Z,39.68
2022-12-14T08:37:40.602Z,39.47
2022-12-14T08:40:14.877Z,39.62
2022-12-14T08:42:43.818Z,39.68
2022-12-14T08:45:13.157Z,39.82
2022-12-14T08:47:43.100Z,39.56
2022-12-14T08:50:12.779Z,39.71
2022-12-14T08:52:41.498Z,39.80
2022-12-14T08:55:10.557Z,39.87
2022-12-14T08:57:39.299Z,39.80
2022-12-14T09:00:12.156Z,39.81
2022-12-14T09:02:41.031Z,39.98
2022-12-14T09:05:11.609Z,39.97
2022-12-14T09:07:40.555Z,39.92
2022-12-14T09:10:09.821Z,39.92
2022-12-14T09:12:38.787Z,40.12
2022-12-14T09:15:08.525Z,40.02
2022-12-14T09:17:37.310Z,39.98
2022-12-14T09:20:07.125Z,40.12
2022-12-14T09:22:36.509Z,39.89
2022-12-14T09:25:06.196Z,40.34
2022-12-14T09:27:35.014Z,40.16
2022-12-14T09:30:04.468Z,39.57
2022-12-14T09:32:33.239Z,39.63
2022-12-14T09:35:03.339Z,39.35
2022-12-14T09:37:32.230Z,39.07
2022-12-14T09:40:01.256Z,38.96
2022-12-14T09:42:38.820Z,38.93
2022-12-14T09:45:23.310Z,38.67
2022-12-14T09:48:20.655Z,38.17
2022-12-14T09:50:51.341Z,38.41
2022-12-14T09:53:20.228Z,38.20
2022-12-14T09:55:51.094Z,37.77
2022-12-14T09:58:26.840Z,37.80
2022-12-14T10:01:06.198Z,37.54
2022-12-14T10:03:53.610Z,37.14
2022-12-14T10:06:37.199Z,37.00
2022-12-14T10:09:05.898Z,36.71
2022-12-14T10:12:14.625Z,36.73
2022-12-14T10:14:50.257Z,36.92
2022-12-14T10:17:30.405Z,36.58
2022-12-14T10:20:17.605Z,36.40
2022-12-14T10:22:49.709Z,36.34
2022-12-14T10:25:24.001Z,36.09
2022-12-14T10:28:13.714Z,36.16
2022-12-14T10:30:43.782Z,36.06
2022-12-14T10:33:30.577Z,36.04
2022-12-14T10:36:02.408Z,35.98
2022-12-14T10:38:41.778Z,35.85
2022-12-14T10:41:31.176Z,35.72
2022-12-14T10:44:33.946Z,35.54
2022-12-14T10:47:35.188Z,35.77
2022-12-14T10:50:34.377Z,35.75
2022-12-14T10:53:03.594Z,35.77
2022-12-14T10:55:39.801Z,35.18
2022-12-14T10:58:11.198Z,35.58
2022-12-14T11:00:40.489Z,35.30
2022-12-14T11:03:15.805Z,35.08
2022-12-14T11:06:00.387Z,35.16
2022-12-14T11:08:47.963Z,35.47
2022-12-14T11:11:19.948Z,35.72
2022-12-14T11:14:14.664Z,36.26
2022-12-14T11:16:43.916Z,36.29
2022-12-14T11:19:21.861Z,36.61
2022-12-14T11:21:52.829Z,37.24
2022-12-14T11:24:29.730Z,37.38
2022-12-14T11:27:02.727Z,37.63
2022-12-14T11:29:33.419Z,38.01
2022-12-14T11:32:02.510Z,38.20
2022-12-14T11:34:37.958Z,38.32
2022-12-14T11:37:21.658Z,38.85
2022-12-14T11:39:53.011Z,38.74
2022-12-14T11:42:22.381Z,39.06
2022-12-14T11:44:51.860Z,39.30
2022-12-14T11:47:26.877Z,39.08
2022-12-14T11:50:00.603Z,38.94
2022-12-14T11:52:38.808Z,39.05
2022-12-14T11:55:24.609Z,38.63
2022-12-14T11:57:58.350Z,38.39
2022-12-14T12:00:32.576Z,38.42
2022-12-14T12:03:19.923Z,38.50
2022-12-14T12:05:48.887Z,38.25
2022-12-14T12:08:29.292Z,38.25
2022-12-14T12:11:03.030Z,38.07
2022-12-14T12:13:35.298Z,38.39
2022-12-14T12:16:10.513Z,38.40
2022-12-14T12:18:46.152Z,38.54
2022-12-14T12:21:15.257Z,38.87
2022-12-14T12:24:02.956Z,39.31
2022-12-14T12:26:33.308Z,39.50
2022-12-14T12:29:20.039Z,39.91
2022-12-14T12:32:15.029Z,39.90
2022-12-14T12:35:12.448Z,40.23
2022-12-14T12:37:43.528Z,40.13
2022-12-14T12:40:28.597Z,40.47
2022-12-14T12:43:04.951Z,40.41
2022-12-14T12:45:58.783Z,40.55
2022-12-14T12:48:33.231Z,40.53
2022-12-14T12:51:11.373Z,40.46
2022-12-14T12:53:45.218Z,40.60
2022-12-14T12:56:34.854Z,40.64
2022-12-14T12:59:04.394Z,40.26
2022-12-14T13:01:35.255Z,40.28
2022-12-14T13:04:28.363Z,40.10
2022-12-14T13:07:21.023Z,39.90
2022-12-14T13:10:18.775Z,39.40
2022-12-14T13:13:04.156Z,39.41
2022-12-14T13:15:51.227Z,38.86
2022-12-14T13:18:49.248Z,38.92
2022-12-14T13:21:23.932Z,38.61
2022-12-14T13:23:53.612Z,38.50
2022-12-14T13:26:56.555Z,38.30
2022-12-14T13:29:44.428Z,38.10
2022-12-14T13:32:25.963Z,38.23
2022-12-14T13:35:20.065Z,38.19
2022-12-14T13:38:01.036Z,38.49
2022-12-14T13:40:57.904Z,38.39
2022-12-14T13:43:38.694Z,38.50
2022-12-14T13:46:27.077Z,38.32
2022-12-14T13:49:03.334Z,38.54
2022-12-14T13:51:39.123Z,38.39
2022-12-14T13:54:18.887Z,38.71
2022-12-14T13:56:48.370Z,38.61
2022-12-14T13:59:33.572Z,38.76
2022-12-14T14:02:03.287Z,38.45
2022-12-14T14:04:33.945Z,38.44
2022-12-14T14:07:36.508Z,38.53
2022-12-14T14:10:06.809Z,38.30
2022-12-14T14:12:42.060Z,38.40
2022-12-14T14:15:32.693Z,38.23
2022-12-14T14:18:19.712Z,38.16
2022-12-14T14:21:14.044Z,38.06
2022-12-14T14:23:54.467Z,37.80
2022-12-14T14:26:27.317Z,37.76
2022-12-14T14:29:22.706Z,37.64
2022-12-14T14:31:55.052Z,37.39
2022-12-14T14:34:43.310Z,37.39
2022-12-14T14:37:32.988Z,37.71
2022-12-14T14:40:20.378Z,37.75
2022-12-14T14:43:00.512Z,37.65
2022-12-14T14:45:36.547Z,37.80
2022-12-14T14:48:34.157Z,38.04
2022-12-14T14:51:11.806Z,38.14
2022-12-14T14:53:41.262Z,38.11
2022-12-14T14:56:34.406Z,38.24
2022-12-14T14:59:18.694Z,38.35
2022-12-14T15:02:00.985Z,38.85
2022-12-14T15:04:51.531Z,38.95
2022-12-14T15:07:27.435Z,39.12
2022-12-14T15:10:01.673Z,39.41
2022-12-14T15:12:43.882Z,39.25
2022-12-14T15:15:20.187Z,39.13
2022-12-14T15:17:49.984Z,39.05
2022-12-14T15:20:26.180Z,39.05
2022-12-14T15:22:56.565Z,38.94
2022-12-14T15:25:29.036Z,38.71
2022-12-14T15:28:02.046Z,38.82
2022-12-14T15:30:31.877Z,38.55
2022-12-14T15:33:07.817Z,38.17
2022-12-14T15:35:46.187Z,38.13
2022-12-14T15:38:26.237Z,37.89
2022-12-14T15:41:04.365Z,37.64
2022-12-14T15:43:34.220Z,37.56
2022-12-14T15:46:03.614Z,37.56
2022-12-14T15:48:35.686Z,37.41
2022-12-14T15:51:12.101Z,37.46
2022-12-14T15:53:49.973Z,37.46
2022-12-14T15:56:33.308Z,37.52
2022-12-14T15:59:04.867Z,37.36
2022-12-14T16:01:55.203Z,37.46
2022-12-14T16:04:28.234Z,37.35
2022-12-14T16:07:09.540Z,37.36
2022-12-14T16:09:42.188Z,37.44
2022-12-14T16:12:25.908Z,37.74
2022-12-14T16:15:00.687Z,37.71
2022-12-14T16:17:32.752Z,37.88
2022-12-14T16:20:09.641Z,38.01
2022-12-14T16:22:41.791Z,38.05
2022-12-14T16:25:17.157Z,38.13
2022-12-14T16:27:50.324Z,38.30
2022-12-14T16:30:30.328Z,38.21
2022-12-14T16:33:20.115Z,38.06
2022-12-14T16:36:00.980Z,38.18
2022-12-14T16:38:30.456Z,38.34
2022-12-14T16:41:03.662Z,38.13
2022-12-14T16:43:35.679Z,38.00
2022-12-14T16:46:10.805Z,37.64
2022-12-14T16:48:42.468Z,37.66
2022-12-14T16:51:44.458Z,37.38
2022-12-14T16:54:28.326Z,37.08
2022-12-14T16:57:21.854Z,37.22
2022-12-14T17:00:01.338Z,37.22
2022-12-14T17:02:35.175Z,37.11
2022-12-14T17:05:12.607Z,37.12
2022-12-14T17:07:42.236Z,37.27
2022-12-14T17:10:18.557Z,37.34
2022-12-14T17:12:48.463Z,37.15
2022-12-14T17:15:19.047Z,37.43
2022-12-14T17:17:50.467Z,37.25
2022-12-14T17:20:28.006Z,37.57
2022-12-14T17:22:58.976Z,37.54
2022-12-14T17:25:28.087Z,37.74
2022-12-14T17:27:57.383Z,37.86
2022-12-14T17:30:26.447Z,37.78
2022-12-14T17:32:56.153Z,37.87
2022-12-14T17:35:30.154Z,37.99
2022-12-14T17:37:59.931Z,37.88
2022-12-14T17:40:28.840Z,38.03
2022-12-14T17:42:58.423Z,38.03
2022-12-14T17:45:29.391Z,38.39
2022-12-14T17:47:59.224Z,38.18
2022-12-14T17:50:28.080Z,38.28
2022-12-14T17:52:57.390Z,38.15
2022-12-14T17:55:28.036Z,38.26
2022-12-14T17:57:58.691Z,38.09
2022-12-14T18:00:47.634Z,38.05
2022-12-14T18:03:18.978Z,37.85
2022-12-14T18:05:52.622Z,37.75
2022-12-14T18:08:23.892Z,37.72
2022-12-14T18:10:56.822Z,37.42
2022-12-14T18:13:27.916Z,37.43
2022-12-14T18:15:57.481Z,37.60
2022-12-14T18:18:28.064Z,37.61
2022-12-14T18:20:59.265Z,37.59
2022-12-14T18:23:30.221Z,37.60
2022-12-14T18:26:00.467Z,37.68
2022-12-14T18:28:31.538Z,37.73
2022-12-14T18:31:05.419Z,37.74
2022-12-14T18:33:36.426Z,37.83
2022-12-14T18:36:05.781Z,38.00
2022-12-14T18:38:36.906Z,38.19
2022-12-14T18:41:06.021Z,38.05
2022-12-14T18:43:40.307Z,38.23
2022-12-14T18:46:13.111Z,38.44
2022-12-14T18:48:42.807Z,38.37
2022-12-14T18:51:14.737Z,38.52
2022-12-14T18:53:44.062Z,38.67
2022-12-14T18:56:13.167Z,38.68
2022-12-14T18:58:45.458Z,38.95
2022-12-14T19:01:16.503Z,38.77
2022-12-14T19:03:46.138Z,38.89
2022-12-14T19:06:44.070Z,38.69
2022-12-14T19:09:14.814Z,38.42
2022-12-14T19:11:43.757Z,38.30
2022-12-14T19:14:13.322Z,38.06
2022-12-14T19:16:42.077Z,38.02
2022-12-14T19:19:11.477Z,37.66
2022-12-14T19:21:40.565Z,37.55
2022-12-14T19:24:14.371Z,37.89
2022-12-14T19:26:43.227Z,38.02
2022-12-14T19:29:19.641Z,38.01
2022-12-14T19:31:53.191Z,38.35
2022-12-14T19:34:24.218Z,38.33
2022-12-14T19:36:53.353Z,38.59
2022-12-14T19:39:22.761Z,38.71
2022-12-14T19:41:51.939Z,38.79
2022-12-14T19:44:21.146Z,38.99
2022-12-14T19:46:50.201Z,39.01
2022-12-14T19:49:19.837Z,38.88
2022-12-14T19:51:48.902Z,39.18
2022-12-14T19:54:19.571Z,39.09
2022-12-14T19:56:50.713Z,39.23
2022-12-14T19:59:20.051Z,39.25
2022-12-14T20:01:49.316Z,39.38
2022-12-14T20:04:19.028Z,39.47
2022-12-14T20:06:48.159Z,39.49
2022-12-14T20:09:17.868Z,39.31
2022-12-14T20:11:47.180Z,39.35
2022-12-14T20:14:16.433Z,39.14
2022-12-14T20:16:45.395Z,38.99
2022-12-14T20:19:15.481Z,38.94
2022-12-14T20:21:44.543Z,38.68
2022-12-14T20:24:13.839Z,38.61
2022-12-14T20:26:43.509Z,38.52
2022-12-14T20:29:14.001Z,38.45
2022-12-14T20:31:43.175Z,38.20
2022-12-14T20:34:13.562Z,38.44
2022-12-14T20:36:42.482Z,38.48
2022-12-14T20:39:12.861Z,38.33
2022-12-14T20:41:41.835Z,38.55
2022-12-14T20:44:12.863Z,38.68
2022-12-14T20:46:43.729Z,38.56
2022-12-14T20:49:17.437Z,38.48
2022-12-14T20:51:46.707Z,38.63
2022-12-14T20:54:19.020Z,38.76
2022-12-14T20:56:49.289Z,38.79
2022-12-14T20:59:19.506Z,38.77
2022-12-14T21:01:55.135Z,38.63
2022-12-14T21:04:25.307Z,38.73
2022-12-14T21:06:54.434Z,39.15
2022-12-14T21:09:23.684Z,39.24
2022-12-14T21:12:11.050Z,39.33
2022-12-14T21:14:48.883Z,39.47
2022-12-14T21:17:18.439Z,39.62
2022-12-14T21:19:48.985Z,39.63
2022-12-14T21:22:21.249Z,39.54
2022-12-14T21:25:07.454Z,39.58
2022-12-14T21:27:39.437Z,39.67
2022-12-14T21:30:10.937Z,39.45
2022-12-14T21:32:40.139Z,39.20
2022-12-14T21:35:10.730Z,38.95
2022-12-14T21:37:39.545Z,38.63
2022-12-14T21:40:29.767Z,38.52
2022-12-14T21:42:58.678Z,38.29
2022-12-14T21:45:27.932Z,37.99
2022-12-14T21:47:57.142Z,37.78
2022-12-14T21:50:26.455Z,37.62
2022-12-14T21:52:56.505Z,37.59
2022-12-14T21:55:25.821Z,37.34
2022-12-14T21:58:13.299Z,37.59
2022-12-14T22:00:42.695Z,37.44
2022-12-14T22:03:11.656Z,37.47
2022-12-14T22:05:40.935Z,37.59
2022-12-14T22:08:09.886Z,37.60
2022-12-14T22:10:40.109Z,37.53
2022-12-14T22:13:09.134Z,37.48
2022-12-14T22:15:38.915Z,37.48
2022-12-14T22:18:07.895Z,37.53
2022-12-14T22:20:37.300Z,37.41
2022-12-14T22:23:06.084Z,37.49
2022-12-14T22:25:35.399Z,37.53
2022-12-14T22:28:04.495Z,37.70
2022-12-14T22:30:33.655Z,37.56
2022-12-14T22:33:02.451Z,37.69
2022-12-14T22:35:32.364Z,37.55
2022-12-14T22:38:01.191Z,37.59
2022-12-14T22:40:32.121Z,37.52
2022-12-14T22:43:00.995Z,37.22
2022-12-14T22:45:30.332Z,37.08
2022-12-14T22:47:59.559Z,36.88
2022-12-14T22:50:29.957Z,36.71
2022-12-14T22:52:59.345Z,36.68
2022-12-14T22:55:31.080Z,36.60
2022-12-14T22:58:00.005Z,36.67
2022-12-14T23:00:29.351Z,36.60
2022-12-14T23:02:58.329Z,36.65
2022-12-14T23:05:27.579Z,36.40
2022-12-14T23:07:56.333Z,36.34
2022-12-14T23:10:43.726Z,36.53
2022-12-14T23:13:31.526Z,36.71
2022-12-14T23:16:19.891Z,36.59
2022-12-14T23:19:07.225Z,36.66
2022-12-14T23:21:57.872Z,36.80
2022-12-14T23:24:45.037Z,36.78
2022-12-14T23:27:32.792Z,36.83
2022-12-14T23:30:20.256Z,36.64
2022-12-14T23:33:07.597Z,36.81
2022-12-14T23:35:54.789Z,36.90
2022-12-14T23:38:42.426Z,36.85
2022-12-14T23:41:29.394Z,36.81
2022-12-14T23:44:17.107Z,36.54
2022-12-14T23:47:04.295Z,36.68
2022-12-14T23:49:51.713Z,36.41
2022-12-14T23:52:38.647Z,36.24
2022-12-14T23:55:27.698Z,36.21
2022-12-14T23:58:16.644Z,35.90
